Time;durP1;ratioP1;P1;durP2;ratioP2;P2;SDS_P1;SDS_P2;PMS_P1;PMS_P2;Temp;Humidity;BMP_temperature;BMP_pressure;BME280_temperature;BME280_humidity;BME280_pressure;Samples;Min_cycle;Max_cycle;Signal;HPM_P1;HPM_P2
2023/01/08 00:01:03;;;;;;;;;;;;;;;20.14;57.17;100451.94;5012742;28;4092;-62
2023/01/08 00:03:29;;;;;;;;;;;;;;;20.13;57.33;100447.56;5015211;28;4105;-62
2023/01/08 00:05:58;;;;;;;;;;;;;;;20.11;57.29;100453.97;5019013;28;4352;-63
2023/01/08 00:08:25;;;;;;;;;;;;;;;20.11;57.23;100447.47;5013921;28;5373;-63
2023/01/08 00:10:54;;;;;;;;;;;;;;;20.11;57.10;100441.72;5015621;28;4176;-62
2023/01/08 00:13:21;;;;;;;;;;;;;;;20.09;57.24;100445.28;5018826;28;4202;-63
2023/01/08 00:15:47;;;;;;;;;;;;;;;20.09;57.27;100446.00;5019518;28;4088;-62
2023/01/08 00:18:13;;;;;;;;;;;;;;;20.07;57.23;100443.06;5020638;28;4185;-63
2023/01/08 00:20:40;;;;;;;;;;;;;;;20.07;57.04;100437.31;5016380;28;5303;-62
2023/01/08 00:23:10;;;;;;;;;;;;;;;20.06;57.19;100430.06;5013936;28;4090;-63
2023/01/08 00:25:37;;;;;;;;;;;;;;;20.06;57.22;100420.72;5020447;28;4129;-62
2023/01/08 00:28:03;;;;;;;;;;;;;;;20.04;57.00;100415.63;5017089;28;4348;-62
2023/01/08 00:30:30;;;;;;;;;;;;;;;20.03;57.29;100408.38;5016230;28;4265;-63
2023/01/08 00:32:56;;;;;;;;;;;;;;;20.04;57.08;100409.13;5021225;28;4333;-62
2023/01/08 00:35:25;;;;;;;;;;;;;;;20.02;57.05;100417.66;5011126;28;4162;-62
2023/01/08 00:37:52;;;;;;;;;;;;;;;20.02;57.07;100406.94;5006444;28;4242;-62
2023/01/08 00:40:18;;;;;;;;;;;;;;;20.01;56.96;100399.69;5020429;28;5260;-62
2023/01/08 00:42:44;;;;;;;;;;;;;;;20.02;57.00;100400.41;5011861;28;4194;-62
2023/01/08 00:45:11;;;;;;;;;;;;;;;20.01;56.96;100399.69;5015370;28;3979;-63
2023/01/08 00:47:37;;;;;;;;;;;;;;;20.01;56.95;100393.94;5019883;28;4209;-62
2023/01/08 00:50:03;;;;;;;;;;;;;;;20.01;57.11;100385.31;5013457;28;5488;-62
2023/01/08 00:52:30;;;;;;;;;;;;;;;20.00;57.16;100386.72;5013322;28;4015;-62
2023/01/08 00:54:56;;;;;;;;;;;;;;;20.01;57.10;100387.47;5016494;28;5524;-62
2023/01/08 00:57:22;;;;;;;;;;;;;;;19.99;57.15;100384.50;5019765;28;5123;-62
2023/01/08 00:59:49;;;;;;;;;;;;;;;19.99;57.00;100384.50;5020504;28;4157;-62
2023/01/08 01:02:15;;;;;;;;;;;;;;;19.99;56.93;100378.75;5019385;28;4291;-62
2023/01/08 01:04:44;;;;;;;;;;;;;;;19.97;57.03;100376.53;5021534;28;5450;-62
2023/01/08 01:07:11;;;;;;;;;;;;;;;19.97;56.96;100385.16;5017410;28;5204;-62
2023/01/08 01:09:37;;;;;;;;;;;;;;;19.97;57.04;100376.53;5020281;28;4222;-62
2023/01/08 01:12:03;;;;;;;;;;;;;;;19.97;57.09;100379.41;5019403;28;5210;-62
2023/01/08 01:14:30;;;;;;;;;;;;;;;19.96;57.03;100372.19;5020104;28;5302;-62
2023/01/08 01:16:56;;;;;;;;;;;;;;;19.95;56.85;100373.59;5017569;28;3999;-62
2023/01/08 01:19:23;;;;;;;;;;;;;;;19.94;56.83;100365.63;5019996;28;4140;-60
2023/01/08 01:21:49;;;;;;;;;;;;;;;19.94;56.93;100366.34;5014532;28;4025;-62
2023/01/08 01:24:15;;;;;;;;;;;;;;;19.95;56.78;100372.84;5018937;28;4154;-62
2023/01/08 01:26:42;;;;;;;;;;;;;;;19.94;56.81;100369.22;5016384;28;4045;-62
2023/01/08 01:29:08;;;;;;;;;;;;;;;19.94;56.68;100362.75;5017153;28;4190;-62
2023/01/08 01:31:35;;;;;;;;;;;;;;;19.94;56.76;100368.50;5024794;28;4188;-62
2023/01/08 01:34:01;;;;;;;;;;;;;;;19.94;56.50;100371.38;5019576;28;5508;-62
2023/01/08 01:36:27;;;;;;;;;;;;;;;19.92;56.55;100374.88;5023358;28;4863;-62
2023/01/08 01:38:56;;;;;;;;;;;;;;;19.91;56.71;100367.69;5025603;28;3958;-62
2023/01/08 01:41:26;;;;;;;;;;;;;;;19.91;56.59;100367.69;5017623;28;4153;-62
2023/01/08 01:43:52;;;;;;;;;;;;;;;19.91;56.65;100359.06;5016335;28;4283;-62
2023/01/08 01:46:39;;;;;;;;;;;;;;;19.91;56.47;100350.44;5018186;28;4502;-62
2023/01/08 01:49:09;;;;;;;;;;;;;;;19.90;56.52;100348.22;5002862;28;4199;-62
2023/01/08 01:51:36;;;;;;;;;;;;;;;19.90;56.38;100359.72;5018163;28;4863;-62
2023/01/08 01:54:02;;;;;;;;;;;;;;;19.90;56.25;100354.69;5013187;28;5267;-62
2023/01/08 01:56:29;;;;;;;;;;;;;;;19.89;56.52;100358.97;5017695;28;5146;-62
2023/01/08 01:58:55;;;;;;;;;;;;;;;19.89;56.39;100350.34;4999207;28;4159;-62
2023/01/08 02:01:21;;;;;;;;;;;;;;;19.88;56.43;100348.84;5018811;28;5279;-62
2023/01/08 02:03:48;;;;;;;;;;;;;;;19.88;56.35;100351.72;5020501;28;4060;-62
2023/01/08 02:06:16;;;;;;;;;;;;;;;19.87;56.39;100344.53;5022251;28;4011;-62
2023/01/08 02:08:42;;;;;;;;;;;;;;;19.86;56.40;100346.66;5003452;28;4089;-62
2023/01/08 02:11:09;;;;;;;;;;;;;;;19.87;56.24;100335.91;5018139;28;4362;-62
2023/01/08 02:13:37;;;;;;;;;;;;;;;19.86;56.41;100325.81;5021228;28;4320;-62
2023/01/08 02:16:08;;;;;;;;;;;;;;;19.86;56.35;100322.94;5001689;28;4587;-62
2023/01/08 02:18:41;;;;;;;;;;;;;;;19.85;56.13;100316.44;4998832;28;4202;-62
2023/01/08 02:21:09;;;;;;;;;;;;;;;19.85;56.16;100319.31;4994231;28;4187;-63
2023/01/08 02:23:38;;;;;;;;;;;;;;;19.84;56.23;100317.13;5002320;28;4088;-62
2023/01/08 02:26:06;;;;;;;;;;;;;;;19.84;56.16;100317.84;5007431;28;5407;-62
2023/01/08 02:28:34;;;;;;;;;;;;;;;19.83;56.09;100316.34;5000239;28;4102;-62
2023/01/08 02:31:01;;;;;;;;;;;;;;;19.83;55.95;100312.75;4999334;28;3999;-62
2023/01/08 02:33:27;;;;;;;;;;;;;;;19.83;56.09;100322.09;5004594;28;4001;-62
2023/01/08 02:36:09;;;;;;;;;;;;;;;19.82;56.02;100305.53;5019824;28;4127;-62
2023/01/08 02:38:36;;;;;;;;;;;;;;;19.81;56.29;100296.19;5020549;28;4142;-62
2023/01/08 02:41:03;;;;;;;;;;;;;;;19.82;56.13;100299.78;4993163;28;4052;-62
2023/01/08 02:43:40;;;;;;;;;;;;;;;19.82;56.15;100291.16;5018230;28;3964;-62
2023/01/08 02:46:07;;;;;;;;;;;;;;;19.80;56.03;100288.94;4999864;28;4150;-63
2023/01/08 02:48:38;;;;;;;;;;;;;;;19.80;55.91;100288.94;4998052;28;4083;-61
2023/01/08 02:51:05;;;;;;;;;;;;;;;19.80;56.16;100283.19;4995308;28;4089;-61
2023/01/08 02:53:32;;;;;;;;;;;;;;;19.80;56.01;100276.72;5016249;28;4116;-61
2023/01/08 02:55:59;;;;;;;;;;;;;;;19.80;55.84;100276.72;4999117;28;4031;-61
2023/01/08 02:58:25;;;;;;;;;;;;;;;19.79;56.10;100269.50;4998472;28;5278;-61
2023/01/08 03:00:52;;;;;;;;;;;;;;;19.79;55.94;100263.75;5001653;28;4148;-62
2023/01/08 03:03:19;;;;;;;;;;;;;;;19.79;55.91;100276.00;4998787;28;4771;-62
2023/01/08 03:05:47;;;;;;;;;;;;;;;19.81;55.95;100278.19;4998227;28;4096;-61
2023/01/08 03:08:13;;;;;;;;;;;;;;;19.80;56.06;100270.97;5001473;28;3949;-62
2023/01/08 03:10:40;;;;;;;;;;;;;;;19.82;56.02;100253.81;5023121;28;4036;-62
2023/01/08 03:13:07;;;;;;;;;;;;;;;19.82;56.43;100253.81;4996817;28;4114;-62
2023/01/08 03:15:35;;;;;;;;;;;;;;;19.82;56.37;100256.69;5005097;28;4381;-61
2023/01/08 03:18:03;;;;;;;;;;;;;;;19.81;56.20;100255.22;5019694;28;5278;-62
2023/01/08 03:20:30;;;;;;;;;;;;;;;19.81;56.29;100272.44;4999484;28;4380;-62
2023/01/08 03:22:56;;;;;;;;;;;;;;;19.81;56.34;100263.81;5017924;28;4528;-61
2023/01/08 03:25:23;;;;;;;;;;;;;;;19.79;56.24;100246.50;5006249;28;4118;-61
2023/01/08 03:27:51;;;;;;;;;;;;;;;19.80;56.41;100259.50;5019909;28;4282;-62
2023/01/08 03:30:18;;;;;;;;;;;;;;;19.79;56.33;100246.50;4998196;28;4782;-61
2023/01/08 03:48:42;;;;;;;;;;;;;;;19.87;56.62;100252.56;5002032;28;4938;-62
2023/01/08 03:51:09;;;;;;;;;;;;;;;19.88;56.54;100248.28;4998916;28;4169;-62
2023/01/08 03:53:35;;;;;;;;;;;;;;;19.88;56.42;100254.81;5020244;28;4389;-61
2023/01/08 03:56:01;;;;;;;;;;;;;;;19.90;56.43;100251.25;5021854;28;4467;-61
2023/01/08 03:58:28;;;;;;;;;;;;;;;19.91;56.37;100247.00;5022695;28;5270;-62
2023/01/08 04:00:54;;;;;;;;;;;;;;;19.90;56.33;100251.25;5024163;28;4196;-62
2023/01/08 04:03:21;;;;;;;;;;;;;;;19.91;56.31;100252.75;5023183;28;5159;-62
2023/01/08 04:05:47;;;;;;;;;;;;;;;19.91;56.29;100234.78;5017998;28;4196;-62
2023/01/08 04:08:13;;;;;;;;;;;;;;;19.91;56.22;100237.66;5021115;28;4481;-62
2023/01/08 04:10:40;;;;;;;;;;;;;;;19.91;56.14;100229.75;5018680;28;5305;-62
2023/01/08 04:13:06;;;;;;;;;;;;;;;19.93;56.14;100235.59;5020721;28;5239;-62
2023/01/08 04:15:32;;;;;;;;;;;;;;;19.94;56.27;100251.41;5018797;28;5217;-62
2023/01/08 04:17:59;;;;;;;;;;;;;;;19.96;56.40;100259.38;5021198;28;5180;-62
2023/01/08 04:20:25;;;;;;;;;;;;;;;19.96;56.33;100248.63;5019779;28;4327;-61
2023/01/08 04:22:51;;;;;;;;;;;;;;;19.96;56.35;100240.00;5024139;28;5350;-62
2023/01/08 04:25:18;;;;;;;;;;;;;;;19.95;56.58;100241.41;5022954;28;3952;-62
2023/01/08 04:27:44;;;;;;;;;;;;;;;19.97;56.18;100235.72;5019127;28;4224;-62
2023/01/08 04:30:11;;;;;;;;;;;;;;;19.95;56.43;100218.41;5021313;28;5288;-62
2023/01/08 04:32:37;;;;;;;;;;;;;;;19.96;56.36;100214.13;5022289;28;4100;-62
2023/01/08 04:35:04;;;;;;;;;;;;;;;19.96;56.35;100214.13;5022786;28;4041;-62
2023/01/08 04:37:30;;;;;;;;;;;;;;;19.98;56.29;100217.09;5018918;28;4086;-62
2023/01/08 04:39:56;;;;;;;;;;;;;;;19.95;56.54;100206.94;5022650;28;4165;-62
2023/01/08 04:42:23;;;;;;;;;;;;;;;19.95;56.29;100206.94;5017979;28;4112;-62
2023/01/08 04:44:49;;;;;;;;;;;;;;;19.97;57.04;100209.13;5022747;28;5304;-62
2023/01/08 04:47:15;;;;;;;;;;;;;;;19.99;56.64;100221.44;5021499;28;5243;-61
2023/01/08 04:49:42;;;;;;;;;;;;;;;20.00;56.52;100222.19;5021958;28;4010;-62
2023/01/08 04:52:11;;;;;;;;;;;;;;;20.01;56.81;100215.75;5022441;28;4087;-62
2023/01/08 04:54:37;;;;;;;;;;;;;;;20.00;56.97;100205.69;5022575;28;4162;-62
2023/01/08 04:57:03;;;;;;;;;;;;;;;20.01;56.95;100218.63;5024965;28;5441;-61
2023/01/08 04:59:30;;;;;;;;;;;;;;;20.02;56.85;100208.63;5017118;28;4129;-62
2023/01/08 05:01:57;;;;;;;;;;;;;;;20.01;56.92;100207.13;5024391;28;4291;-62
2023/01/08 05:04:24;;;;;;;;;;;;;;;20.02;57.03;100217.25;5023920;28;5396;-62
2023/01/08 05:06:50;;;;;;;;;;;;;;;20.02;56.98;100216.50;5025936;28;4034;-62
2023/01/08 05:09:16;;;;;;;;;;;;;;;20.02;57.08;100211.50;5021625;28;5248;-61
2023/01/08 05:11:43;;;;;;;;;;;;;;;20.03;56.84;100198.59;5021406;28;4025;-62
2023/01/08 05:14:09;;;;;;;;;;;;;;;20.04;56.95;100208.72;5024859;28;5262;-62
2023/01/08 05:16:35;;;;;;;;;;;;;;;20.05;56.89;100203.69;5023481;28;5187;-61
2023/01/08 05:19:02;;;;;;;;;;;;;;;20.05;56.87;100198.66;5024066;28;4229;-62
2023/01/08 05:21:28;;;;;;;;;;;;;;;20.07;57.02;100195.88;5024454;28;5256;-61
2023/01/08 05:23:55;;;;;;;;;;;;;;;20.06;56.87;100194.38;5022008;28;4202;-62
2023/01/08 05:26:21;;;;;;;;;;;;;;;20.06;56.97;100194.38;5022535;28;4251;-62
2023/01/08 05:28:47;;;;;;;;;;;;;;;20.07;57.14;100198.03;5017609;28;4020;-62
2023/01/08 05:31:15;;;;;;;;;;;;;;;20.07;57.07;100193.00;5014614;28;4501;-62
2023/01/08 05:33:41;;;;;;;;;;;;;;;20.06;57.20;100188.63;5023779;28;4207;-62
2023/01/08 05:36:08;;;;;;;;;;;;;;;20.05;57.11;100192.19;5023291;28;5155;-62
2023/01/08 05:38:34;;;;;;;;;;;;;;;20.05;57.01;100180.69;5027862;28;4176;-62
2023/01/08 05:41:01;;;;;;;;;;;;;;;20.07;57.12;100178.63;5018836;28;4128;-62
2023/01/08 05:43:27;;;;;;;;;;;;;;;20.08;57.15;100171.47;5025334;28;4299;-62
2023/01/08 05:45:54;;;;;;;;;;;;;;;20.08;57.18;100165.72;5022715;28;4022;-62
2023/01/08 05:48:20;;;;;;;;;;;;;;;20.08;57.23;100168.59;5009959;28;4150;-62
2023/01/08 05:50:47;;;;;;;;;;;;;;;20.09;56.91;100175.84;5023252;28;4163;-62
2023/01/08 05:53:14;;;;;;;;;;;;;;;20.10;57.16;100176.56;5024405;28;5398;-61
2023/01/08 05:55:40;;;;;;;;;;;;;;;20.09;57.20;100166.47;5016549;28;4198;-61
2023/01/08 05:58:06;;;;;;;;;;;;;;;20.08;57.26;100168.59;5018032;28;5311;-62
2023/01/08 06:00:33;;;;;;;;;;;;;;;20.09;57.20;100164.34;5023623;28;4175;-62
2023/01/08 06:02:59;;;;;;;;;;;;;;;20.09;57.26;100161.47;5025188;28;4203;-61
2023/01/08 06:05:26;;;;;;;;;;;;;;;20.08;57.05;100168.59;5025114;28;5571;-62
2023/01/08 06:07:52;;;;;;;;;;;;;;;20.08;57.25;100168.59;5018763;28;4193;-62
2023/01/08 06:10:18;;;;;;;;;;;;;;;20.08;57.42;100167.88;5023391;28;5374;-62
2023/01/08 06:12:45;;;;;;;;;;;;;;;20.06;57.19;100159.91;5021075;28;4153;-62
2023/01/08 06:15:11;;;;;;;;;;;;;;;20.07;56.95;100155.63;5020930;28;4465;-62
2023/01/08 06:17:40;;;;;;;;;;;;;;;20.07;57.14;100161.38;5017376;28;5097;-62
2023/01/08 06:20:07;;;;;;;;;;;;;;;20.08;57.03;100157.09;5021112;28;5241;-62
2023/01/08 06:22:33;;;;;;;;;;;;;;;20.09;57.13;100149.25;5025088;28;4243;-61
2023/01/08 06:25:00;;;;;;;;;;;;;;;20.09;57.15;100155.72;5023359;28;3992;-62
2023/01/08 06:27:26;;;;;;;;;;;;;;;20.11;57.08;100154.31;5024106;28;4351;-61
2023/01/08 06:29:52;;;;;;;;;;;;;;;20.11;57.04;100149.28;5020160;28;4213;-62
2023/01/08 06:32:19;;;;;;;;;;;;;;;20.12;57.22;100153.66;5025358;28;4455;-62
2023/01/08 06:34:45;;;;;;;;;;;;;;;20.13;57.03;100157.25;5017507;28;4041;-62
2023/01/08 06:37:12;;;;;;;;;;;;;;;20.12;56.99;100155.78;5025705;28;4181;-62
2023/01/08 06:39:38;;;;;;;;;;;;;;;20.12;57.24;100155.78;5023908;28;3986;-61
2023/01/08 06:42:04;;;;;;;;;;;;;;;20.11;57.11;100154.31;5023491;28;4140;-61
2023/01/08 06:44:31;;;;;;;;;;;;;;;20.12;57.16;100150.03;5022315;28;4208;-61
2023/01/08 06:46:57;;;;;;;;;;;;;;;20.09;57.10;100146.38;5022808;28;4177;-61
2023/01/08 06:49:23;;;;;;;;;;;;;;;20.09;57.16;100147.09;5026472;28;4243;-61
2023/01/08 06:51:50;;;;;;;;;;;;;;;20.08;57.26;100151.34;5022778;28;4401;-61
2023/01/08 06:54:16;;;;;;;;;;;;;;;20.11;57.07;100145.69;5017444;28;4258;-62
2023/01/08 06:56:42;;;;;;;;;;;;;;;20.11;57.11;100149.28;5023435;28;5243;-61
2023/01/08 06:59:19;;;;;;;;;;;;;;;20.12;57.17;100144.28;5023739;28;5142;-61
2023/01/08 07:01:45;;;;;;;;;;;;;;;20.13;57.02;100145.75;5023890;28;4190;-62
2023/01/08 07:04:12;;;;;;;;;;;;;;;20.14;57.00;100150.13;5023361;28;4480;-62
2023/01/08 07:06:38;;;;;;;;;;;;;;;20.15;57.19;100149.44;5024573;28;4224;-62
2023/01/08 07:09:04;;;;;;;;;;;;;;;20.14;56.89;100147.25;5023323;28;5525;-62
2023/01/08 07:11:31;;;;;;;;;;;;;;;20.13;56.94;100143.63;5020861;28;5215;-62
2023/01/08 07:13:57;;;;;;;;;;;;;;;20.12;57.01;100147.16;5018755;28;4199;-62
2023/01/08 07:16:24;;;;;;;;;;;;;;;20.14;56.96;100142.22;5021632;28;5139;-61
2023/01/08 07:18:50;;;;;;;;;;;;;;;20.14;56.87;100153.00;5025348;28;4282;-62
2023/01/08 07:21:16;;;;;;;;;;;;;;;20.13;57.04;100151.50;5018039;28;4785;-62
2023/01/08 07:23:44;;;;;;;;;;;;;;;20.12;56.98;100155.78;5025359;28;5245;-62
2023/01/08 07:26:10;;;;;;;;;;;;;;;20.17;56.65;100163.16;5020706;28;5267;-62
2023/01/08 07:28:37;;;;;;;;;;;;;;;20.16;56.85;100173.16;5025031;28;5374;-62
2023/01/08 07:31:03;;;;;;;;;;;;;;;20.12;56.76;100173.03;5025604;28;4175;-62
2023/01/08 07:33:30;;;;;;;;;;;;;;;20.13;57.02;100174.50;5017263;28;4070;-61
2023/01/08 07:35:56;;;;;;;;;;;;;;;20.17;57.02;100169.63;5015133;28;4137;-62
2023/01/08 07:38:23;;;;;;;;;;;;;;;20.18;57.01;100170.38;5021042;28;4125;-62
2023/01/08 07:40:49;;;;;;;;;;;;;;;20.18;56.84;100170.38;5019557;28;4200;-61
2023/01/08 07:43:15;;;;;;;;;;;;;;;20.17;56.75;100166.03;5022962;28;4242;-62
2023/01/08 07:45:42;;;;;;;;;;;;;;;20.17;56.71;100174.66;5023045;28;4085;-61
2023/01/08 07:48:15;;;;;;;;;;;;;;;20.16;56.97;100170.28;5013935;28;3942;-62
2023/01/08 07:50:42;;;;;;;;;;;;;;;20.17;56.89;100166.03;5020013;28;4192;-62
2023/01/08 07:53:08;;;;;;;;;;;;;;;20.16;56.80;100161.66;5020544;28;5225;-62
2023/01/08 07:55:34;;;;;;;;;;;;;;;20.16;57.00;100158.78;5019394;28;4200;-62
2023/01/08 07:58:05;;;;;;;;;;;;;;;20.17;56.92;100157.41;5018384;28;5292;-62
2023/01/08 08:00:31;;;;;;;;;;;;;;;20.17;56.84;100154.53;5021818;28;4035;-62
2023/01/08 08:03:01;;;;;;;;;;;;;;;20.18;57.07;100156.00;5020896;28;4021;-62
2023/01/08 08:05:28;;;;;;;;;;;;;;;20.18;57.10;100153.13;5018567;28;4133;-62
2023/01/08 08:07:54;;;;;;;;;;;;;;;20.19;56.99;100160.34;5010062;28;4249;-61
2023/01/08 08:10:20;;;;;;;;;;;;;;;20.21;56.76;100154.69;5017733;28;4160;-62
2023/01/08 08:12:47;;;;;;;;;;;;;;;20.20;56.77;100156.06;5020119;28;5325;-62
2023/01/08 08:15:13;;;;;;;;;;;;;;;20.20;56.98;100158.94;5015800;28;5294;-62
2023/01/08 08:17:43;;;;;;;;;;;;;;;20.18;56.91;100161.75;5014782;28;4223;-62
2023/01/08 08:20:09;;;;;;;;;;;;;;;20.18;57.01;100153.13;5017845;28;5405;-62
2023/01/08 08:22:36;;;;;;;;;;;;;;;20.19;57.03;100148.84;5021995;28;4195;-62
2023/01/08 08:25:02;;;;;;;;;;;;;;;20.16;56.70;100136.56;5021955;28;4097;-62
2023/01/08 08:27:28;;;;;;;;;;;;;;;20.19;56.59;100140.22;5022922;28;5150;-62
2023/01/08 08:29:55;;;;;;;;;;;;;;;20.19;56.77;100143.09;5019147;28;4183;-61
2023/01/08 08:32:21;;;;;;;;;;;;;;;20.19;56.63;100125.88;5009869;28;4180;-62
2023/01/08 08:34:49;;;;;;;;;;;;;;;20.21;56.72;100125.94;5019419;28;5307;-62
2023/01/08 08:37:15;;;;;;;;;;;;;;;20.22;56.54;100136.03;5018889;28;4203;-62
2023/01/08 08:39:42;;;;;;;;;;;;;;;20.22;56.64;100130.28;5013962;28;4187;-62
2023/01/08 08:42:08;;;;;;;;;;;;;;;20.21;56.68;100131.69;5022507;28;4198;-62
2023/01/08 08:44:34;;;;;;;;;;;;;;;20.21;56.86;100134.56;5026191;28;4151;-62
2023/01/08 08:47:01;;;;;;;;;;;;;;;20.20;56.57;100133.81;5024301;28;4166;-62
2023/01/08 08:49:27;;;;;;;;;;;;;;;20.20;56.78;100122.34;5025157;28;4186;-62
2023/01/08 08:51:54;;;;;;;;;;;;;;;20.19;56.72;100132.34;5015846;28;4218;-62
2023/01/08 08:54:20;;;;;;;;;;;;;;;20.19;56.57;100120.09;5021242;28;4201;-62
2023/01/08 08:56:46;;;;;;;;;;;;;;;20.19;56.92;100120.09;5025487;28;4188;-62
2023/01/08 08:59:13;;;;;;;;;;;;;;;20.21;56.66;100114.44;5024012;28;5340;-62
2023/01/08 09:01:39;;;;;;;;;;;;;;;20.21;56.67;100111.56;5019062;28;5217;-61
2023/01/08 09:04:06;;;;;;;;;;;;;;;20.22;56.59;100119.50;5022955;28;5274;-64
2023/01/08 09:06:32;;;;;;;;;;;;;;;20.22;56.86;100108.00;5019674;28;5364;-62
2023/01/08 09:08:59;;;;;;;;;;;;;;;20.24;56.62;100098.72;5020948;28;4193;-62
2023/01/08 09:11:25;;;;;;;;;;;;;;;20.22;56.73;100095.78;5021797;28;4130;-62
2023/01/08 09:13:51;;;;;;;;;;;;;;;20.23;56.72;100100.13;5023143;28;4226;-62
2023/01/08 09:16:18;;;;;;;;;;;;;;;20.22;56.76;100090.75;5019138;28;4175;-62
2023/01/08 09:18:45;;;;;;;;;;;;;;;20.21;56.63;100085.69;5017132;28;4122;-62
2023/01/08 09:21:12;;;;;;;;;;;;;;;20.21;56.69;100100.06;5018798;28;5555;-62
2023/01/08 09:23:38;;;;;;;;;;;;;;;20.20;56.65;100092.81;5014379;28;5526;-62
2023/01/08 09:26:04;;;;;;;;;;;;;;;20.20;56.77;100107.97;5015400;28;4198;-62
2023/01/08 09:28:31;;;;;;;;;;;;;;;20.21;56.59;100118.03;5014083;28;4135;-62
2023/01/08 09:31:01;;;;;;;;;;;;;;;20.22;56.78;100113.03;5021336;28;4313;-62
2023/01/08 09:33:27;;;;;;;;;;;;;;;20.22;56.85;100108.00;5021587;28;5233;-62
2023/01/08 09:35:53;;;;;;;;;;;;;;;20.23;56.64;100114.50;5017759;28;4425;-62
2023/01/08 09:38:20;;;;;;;;;;;;;;;20.24;56.60;100122.44;5022251;28;5244;-62
2023/01/08 09:40:52;;;;;;;;;;;;;;;20.24;56.64;100124.59;5023984;28;4098;-62
2023/01/08 09:43:18;;;;;;;;;;;;;;;20.26;56.76;100139.03;5002505;28;4141;-63
2023/01/08 09:45:47;;;;;;;;;;;;;;;20.23;56.85;100138.25;5002310;28;4220;-62
2023/01/08 09:48:14;;;;;;;;;;;;;;;20.24;56.67;100145.44;4997889;28;6376;-62
2023/01/08 09:50:40;;;;;;;;;;;;;;;20.23;56.53;100140.38;5025377;28;4316;-62
2023/01/08 09:53:14;;;;;;;;;;;;;;;20.22;56.56;100139.63;5023440;28;4284;-63
2023/01/08 09:55:40;;;;;;;;;;;;;;;20.22;57.00;100138.91;5014448;28;4125;-62
2023/01/08 09:58:15;;;;;;;;;;;;;;;20.21;56.99;100128.81;5003965;28;4205;-63
2023/01/08 10:00:41;;;;;;;;;;;;;;;20.21;56.77;100134.56;5002246;28;4225;-63
2023/01/08 10:03:08;;;;;;;;;;;;;;;20.22;56.70;100130.28;5025262;28;5039;-62
2023/01/08 10:05:35;;;;;;;;;;;;;;;20.24;56.91;100122.44;5025183;28;4242;-62
2023/01/08 10:08:02;;;;;;;;;;;;;;;20.26;57.00;100113.91;5006511;28;3977;-62
2023/01/08 10:10:29;;;;;;;;;;;;;;;20.30;56.93;100113.31;5016487;28;4177;-65
2023/01/08 10:12:55;;;;;;;;;;;;;;;20.34;56.64;100110.59;5024588;28;5302;-68
2023/01/08 10:15:21;;;;;;;;;;;;;;;20.35;56.48;100105.56;5018157;28;4154;-66
2023/01/08 10:18:04;;;;;;;;;;;;;;;20.32;56.52;100104.00;5023789;28;4051;-67
2023/01/08 10:20:30;;;;;;;;;;;;;;;20.29;56.87;100100.34;5023693;28;4241;-68
2023/01/08 10:23:07;;;;;;;;;;;;;;;20.31;56.53;100097.53;5026140;28;4182;-68
2023/01/08 10:25:33;;;;;;;;;;;;;;;20.32;56.55;100093.25;5027222;28;4172;-68
2023/01/08 10:28:00;;;;;;;;;;;;;;;20.32;56.68;100101.88;5008729;28;4212;-68
2023/01/08 10:30:33;;;;;;;;;;;;;;;20.33;56.73;100083.22;5026480;28;4082;-69
2023/01/08 10:33:08;;;;;;;;;;;;;;;20.34;56.65;100084.72;5002933;28;5326;-69
2023/01/08 10:35:36;;;;;;;;;;;;;;;20.35;56.66;100074.66;5001339;28;4110;-67
2023/01/08 10:38:02;;;;;;;;;;;;;;;20.36;56.57;100070.38;5004887;28;4145;-69
2023/01/08 10:40:32;;;;;;;;;;;;;;;20.37;56.74;100071.88;5027126;28;4103;-69
2023/01/08 10:43:04;;;;;;;;;;;;;;;20.38;56.54;100079.06;5009349;28;4165;-70
2023/01/08 10:45:30;;;;;;;;;;;;;;;20.39;56.43;100068.34;5001627;28;4106;-69
2023/01/08 10:47:58;;;;;;;;;;;;;;;20.39;56.30;100074.09;5025596;28;4203;-69
2023/01/08 10:50:25;;;;;;;;;;;;;;;20.38;56.38;100066.84;5027272;28;4120;-69
2023/01/08 10:52:58;;;;;;;;;;;;;;;20.39;56.20;100066.19;5026787;28;3992;-69
2023/01/08 10:55:28;;;;;;;;;;;;;;;20.38;56.31;100066.84;5006127;28;4541;-69
2023/01/08 10:57:56;;;;;;;;;;;;;;;20.38;56.20;100061.09;5025847;28;4254;-69
2023/01/08 11:00:23;;;;;;;;;;;;;;;20.36;56.17;100053.13;5025766;28;5127;-69
2023/01/08 11:02:49;;;;;;;;;;;;;;;20.36;56.20;100056.00;5025756;28;3943;-69
2023/01/08 11:05:16;;;;;;;;;;;;;;;20.38;55.99;100050.31;5026208;28;4147;-69
2023/01/08 11:07:42;;;;;;;;;;;;;;;20.37;56.20;100046.00;5005558;28;4270;-69
2023/01/08 11:10:21;;;;;;;;;;;;;;;20.38;55.90;100052.47;5009061;28;5198;-69
2023/01/08 11:12:48;;;;;;;;;;;;;;;20.36;55.99;100047.38;5009424;28;5058;-69
2023/01/08 11:15:18;;;;;;;;;;;;;;;20.39;55.89;100051.09;5007652;28;4122;-69
2023/01/08 11:17:44;;;;;;;;;;;;;;;20.39;55.92;100039.59;5026374;28;4273;-69
2023/01/08 11:20:27;;;;;;;;;;;;;;;20.40;55.83;100036.03;5007608;28;4164;-68
2023/01/08 11:23:25;;;;;;;;;;;;;;;20.41;55.59;100031.75;5026052;28;4179;-67
2023/01/08 11:25:55;;;;;;;;;;;;;;;20.41;55.61;100025.25;4966829;28;5359;-68
2023/01/08 11:28:42;;;;;;;;;;;;;;;20.40;55.49;100030.25;5024920;28;4568;-67
2023/01/08 11:31:11;;;;;;;;;;;;;;;20.40;55.69;100013.00;5007524;28;3993;-68
2023/01/08 11:33:37;;;;;;;;;;;;;;;20.39;55.51;100011.56;5002046;28;4112;-68
2023/01/08 11:36:21;;;;;;;;;;;;;;;20.39;55.32;100011.56;5008331;28;5104;-68
2023/01/08 11:38:47;;;;;;;;;;;;;;;20.39;55.10;100011.56;5007357;28;4189;-68
2023/01/08 11:41:17;;;;;;;;;;;;;;;20.38;55.42;100018.69;5024799;28;4162;-68
2023/01/08 11:43:45;;;;;;;;;;;;;;;20.38;55.28;100015.81;5007029;28;4128;-68
2023/01/08 11:46:30;;;;;;;;;;;;;;;20.38;55.55;100003.59;5023828;28;4096;-68
2023/01/08 11:49:15;;;;;;;;;;;;;;;20.36;55.27;100010.00;5024586;28;4126;-68
2023/01/08 11:51:55;;;;;;;;;;;;;;;20.38;55.30;99998.56;5025579;28;4166;-69
2023/01/08 11:54:25;;;;;;;;;;;;;;;20.40;54.91;99980.66;5000531;28;4054;-68
2023/01/08 11:57:04;;;;;;;;;;;;;;;20.40;55.31;99986.41;5006364;28;3966;-68
2023/01/08 11:59:48;;;;;;;;;;;;;;;20.40;54.90;99980.66;5024762;28;4004;-68
2023/01/08 12:02:21;;;;;;;;;;;;;;;20.41;54.93;99994.38;5024116;28;5560;-68
2023/01/08 12:04:52;;;;;;;;;;;;;;;20.38;55.01;99984.19;5024424;28;3985;-67
2023/01/08 12:07:23;;;;;;;;;;;;;;;20.41;55.02;99985.75;5024142;28;4178;-68
2023/01/08 12:09:53;;;;;;;;;;;;;;;20.41;54.80;99985.00;5024545;28;4005;-68
2023/01/08 12:12:26;;;;;;;;;;;;;;;20.38;55.08;99981.31;4999611;28;4106;-65
2023/01/08 12:15:04;;;;;;;;;;;;;;;20.31;55.33;99973.91;5016031;28;4168;-68
2023/01/08 12:17:38;;;;;;;;;;;;;;;20.30;54.76;99975.31;5005338;28;4170;-67
2023/01/08 12:20:23;;;;;;;;;;;;;;;20.35;55.09;99968.28;5021461;28;4197;-67
2023/01/08 12:22:55;;;;;;;;;;;;;;;20.35;55.37;99965.41;5019686;28;4148;-67
2023/01/08 12:25:33;;;;;;;;;;;;;;;20.36;55.23;99960.41;5024269;28;4187;-67
2023/01/08 12:28:18;;;;;;;;;;;;;;;20.37;55.21;99962.59;5006975;28;4070;-67
2023/01/08 12:30:44;;;;;;;;;;;;;;;20.17;55.48;99959.06;5002742;28;5059;-66
2023/01/08 12:33:29;;;;;;;;;;;;;;;20.12;55.32;99966.81;5013763;28;4284;-66
2023/01/08 12:35:56;;;;;;;;;;;;;;;19.99;54.77;99959.94;5017443;28;4031;-69
2023/01/08 12:38:22;;;;;;;;;;;;;;;19.45;52.99;99968.09;5010590;28;3963;-68
2023/01/08 12:40:53;;;;;;;;;;;;;;;19.76;52.83;99972.06;5016532;28;4169;-68
2023/01/08 12:43:21;;;;;;;;;;;;;;;20.03;53.88;99962.22;5003520;28;4163;-70
2023/01/08 12:45:49;;;;;;;;;;;;;;;20.15;53.97;99959.72;5022575;28;4315;-70
2023/01/08 12:48:16;;;;;;;;;;;;;;;20.23;54.26;99959.28;5025626;28;4217;-70
2023/01/08 12:50:47;;;;;;;;;;;;;;;20.27;54.33;99957.28;5022461;28;4219;-70
2023/01/08 12:53:18;;;;;;;;;;;;;;;20.29;54.40;99950.84;5004540;28;3991;-68
2023/01/08 12:55:51;;;;;;;;;;;;;;;20.30;54.60;99952.31;5023851;28;4021;-69
2023/01/08 12:58:26;;;;;;;;;;;;;;;20.29;54.83;99950.84;5021977;28;4240;-69
2023/01/08 13:00:55;;;;;;;;;;;;;;;20.24;54.63;99955.00;5022297;28;4076;-68
2023/01/08 13:03:25;;;;;;;;;;;;;;;20.29;54.88;99954.47;5022740;28;4153;-69
2023/01/08 13:05:52;;;;;;;;;;;;;;;20.32;55.33;99955.25;5018102;28;4206;-69
2023/01/08 13:08:21;;;;;;;;;;;;;;;20.32;55.29;99958.13;5025062;28;4311;-69